Terminal Aerodrome Forecast
Issued by NWS

Home | Current Version | Previous Version | Text Only | Print | Product List | Glossary On
Versions: 1 2 3 4 5 6 7 8 9 10 11 12 13 14 15
000
FTUS43 KAPX 222333 AAA
TAFMBL
TAF AMD
KMBL 222333Z 2300/2324 VRB03KT 6SM -SHRA SCT014 OVC020
     FM230600 VRB03KT P6SM VCSH OVC015
     FM230900 00000KT P6SM VCSH BKN020
     FM231100 00000KT P6SM SCT030
     FM231500 VRB03KT P6SM BKN050
     FM231700 20004KT P6SM BKN050
     FM232100 27005KT P6SM BKN050=

USA.gov is the U.S. government's official web portal to all federal, state and local government web resources and services.